sensor_id;sensor_type;location;lat;lon;timestamp;pressure;altitude;pressure_sealevel;temperature;humidity
4745;BME280;2386;42.138;24.746;2022-10-10T00:01:28;100328.59;;;15.22;100.00
4745;BME280;2386;42.138;24.746;2022-10-10T00:03:54;100325.16;;;15.15;100.00
4745;BME280;2386;42.138;24.746;2022-10-10T00:06:20;100328.25;;;15.18;100.00
4745;BME280;2386;42.138;24.746;2022-10-10T00:08:46;100336.22;;;15.08;100.00
4745;BME280;2386;42.138;24.746;2022-10-10T00:11:13;100333.50;;;14.79;100.00
4745;BME280;2386;42.138;24.746;2022-10-10T00:13:39;100329.34;;;14.77;100.00
4745;BME280;2386;42.138;24.746;2022-10-10T00:16:04;100331.94;;;14.84;100.00
4745;BME280;2386;42.138;24.746;2022-10-10T00:18:31;100334.44;;;14.85;100.00
4745;BME280;2386;42.138;24.746;2022-10-10T00:20:56;100335.19;;;14.97;100.00
4745;BME280;2386;42.138;24.746;2022-10-10T00:23:22;100340.63;;;14.81;100.00
4745;BME280;2386;42.138;24.746;2022-10-10T00:25:48;100354.84;;;14.83;100.00
4745;BME280;2386;42.138;24.746;2022-10-10T00:28:14;100350.97;;;14.67;100.00
4745;BME280;2386;42.138;24.746;2022-10-10T00:30:39;100351.56;;;14.69;100.00
4745;BME280;2386;42.138;24.746;2022-10-10T00:33:05;100363.78;;;14.66;100.00
4745;BME280;2386;42.138;24.746;2022-10-10T00:35:30;100346.94;;;14.46;100.00
4745;BME280;2386;42.138;24.746;2022-10-10T00:37:56;100355.50;;;14.50;100.00
4745;BME280;2386;42.138;24.746;2022-10-10T00:40:22;100355.25;;;14.51;100.00
4745;BME280;2386;42.138;24.746;2022-10-10T00:42:48;100362.13;;;14.54;100.00
4745;BME280;2386;42.138;24.746;2022-10-10T00:45:38;100363.44;;;14.63;100.00
4745;BME280;2386;42.138;24.746;2022-10-10T00:48:12;100355.72;;;14.60;100.00
4745;BME280;2386;42.138;24.746;2022-10-10T00:50:45;100365.47;;;14.56;100.00
4745;BME280;2386;42.138;24.746;2022-10-10T00:53:14;100368.41;;;14.66;100.00
4745;BME280;2386;42.138;24.746;2022-10-10T00:55:42;100366.63;;;14.60;100.00
4745;BME280;2386;42.138;24.746;2022-10-10T00:58:08;100349.31;;;14.66;100.00
4745;BME280;2386;42.138;24.746;2022-10-10T01:00:34;100357.38;;;14.61;100.00
4745;BME280;2386;42.138;24.746;2022-10-10T01:02:59;100353.09;;;14.65;100.00
4745;BME280;2386;42.138;24.746;2022-10-10T01:05:25;100352.63;;;14.68;100.00
4745;BME280;2386;42.138;24.746;2022-10-10T01:07:51;100359.75;;;14.69;100.00
4745;BME280;2386;42.138;24.746;2022-10-10T01:10:18;100359.75;;;14.57;100.00
4745;BME280;2386;42.138;24.746;2022-10-10T01:15:31;100356.91;;;14.64;100.00
4745;BME280;2386;42.138;24.746;2022-10-10T01:18:25;100355.13;;;14.58;100.00
4745;BME280;2386;42.138;24.746;2022-10-10T01:31:15;100372.56;;;14.57;100.00
4745;BME280;2386;42.138;24.746;2022-10-10T01:33:53;100371.03;;;14.49;100.00
4745;BME280;2386;42.138;24.746;2022-10-10T01:39:30;100383.09;;;14.30;100.00
4745;BME280;2386;42.138;24.746;2022-10-10T01:42:03;100375.03;;;14.35;100.00
4745;BME280;2386;42.138;24.746;2022-10-10T01:44:30;100379.31;;;14.31;100.00
4745;BME280;2386;42.138;24.746;2022-10-10T01:46:57;100385.13;;;14.34;100.00
4745;BME280;2386;42.138;24.746;2022-10-10T01:49:24;100382.97;;;14.25;100.00
4745;BME280;2386;42.138;24.746;2022-10-10T01:52:15;100395.31;;;14.27;100.00
4745;BME280;2386;42.138;24.746;2022-10-10T02:00:24;100396.75;;;14.30;100.00
4745;BME280;2386;42.138;24.746;2022-10-10T02:02:56;100391.88;;;14.20;100.00
4745;BME280;2386;42.138;24.746;2022-10-10T02:05:29;100385.47;;;14.14;100.00
4745;BME280;2386;42.138;24.746;2022-10-10T02:08:05;100404.09;;;14.29;100.00
4745;BME280;2386;42.138;24.746;2022-10-10T02:10:36;100398.88;;;14.16;100.00
4745;BME280;2386;42.138;24.746;2022-10-10T02:13:05;100394.25;;;14.17;100.00
4745;BME280;2386;42.138;24.746;2022-10-10T02:15:47;100410.50;;;14.23;100.00
4745;BME280;2386;42.138;24.746;2022-10-10T02:18:15;100406.72;;;14.24;100.00
4745;BME280;2386;42.138;24.746;2022-10-10T02:20:43;100411.06;;;14.13;100.00
4745;BME280;2386;42.138;24.746;2022-10-10T02:23:12;100399.47;;;14.06;100.00
4745;BME280;2386;42.138;24.746;2022-10-10T02:25:40;100409.91;;;14.21;100.00
4745;BME280;2386;42.138;24.746;2022-10-10T02:28:07;100409.91;;;14.21;100.00
4745;BME280;2386;42.138;24.746;2022-10-10T02:30:38;100401.97;;;14.08;100.00
4745;BME280;2386;42.138;24.746;2022-10-10T02:33:05;100409.19;;;14.14;100.00
4745;BME280;2386;42.138;24.746;2022-10-10T02:35:39;100398.28;;;14.14;100.00
4745;BME280;2386;42.138;24.746;2022-10-10T02:38:08;100405.38;;;14.15;100.00
4745;BME280;2386;42.138;24.746;2022-10-10T02:40:36;100403.25;;;14.05;100.00
4745;BME280;2386;42.138;24.746;2022-10-10T02:43:05;100397.91;;;13.99;100.00
4745;BME280;2386;42.138;24.746;2022-10-10T02:45:31;100405.78;;;13.77;100.00
4745;BME280;2386;42.138;24.746;2022-10-10T02:47:59;100404.13;;;13.76;100.00
4745;BME280;2386;42.138;24.746;2022-10-10T02:50:25;100409.91;;;13.68;100.00
4745;BME280;2386;42.138;24.746;2022-10-10T02:52:51;100415.22;;;13.63;100.00
4745;BME280;2386;42.138;24.746;2022-10-10T02:55:16;100422.44;;;13.57;100.00
4745;BME280;2386;42.138;24.746;2022-10-10T02:57:42;100419.94;;;13.56;100.00
4745;BME280;2386;42.138;24.746;2022-10-10T03:00:08;100430.88;;;13.67;100.00
4745;BME280;2386;42.138;24.746;2022-10-10T03:02:33;100423.16;;;13.64;100.00
4745;BME280;2386;42.138;24.746;2022-10-10T03:04:59;100424.69;;;13.60;100.00
4745;BME280;2386;42.138;24.746;2022-10-10T03:07:24;100431.41;;;13.76;100.00
4745;BME280;2386;42.138;24.746;2022-10-10T03:09:50;100444.34;;;13.80;100.00
4745;BME280;2386;42.138;24.746;2022-10-10T03:12:16;100437.81;;;13.81;100.00
4745;BME280;2386;42.138;24.746;2022-10-10T03:14:42;100428.75;;;13.69;100.00
4745;BME280;2386;42.138;24.746;2022-10-10T03:17:07;100431.03;;;13.72;100.00
4745;BME280;2386;42.138;24.746;2022-10-10T03:19:33;100437.78;;;13.70;100.00
4745;BME280;2386;42.138;24.746;2022-10-10T03:21:58;100436.13;;;13.69;100.00
4745;BME280;2386;42.138;24.746;2022-10-10T03:24:23;100430.28;;;13.65;100.00
4745;BME280;2386;42.138;24.746;2022-10-10T03:26:49;100429.72;;;13.75;100.00
4745;BME280;2386;42.138;24.746;2022-10-10T03:29:14;100437.22;;;13.79;100.00
4745;BME280;2386;42.138;24.746;2022-10-10T03:31:40;100438.38;;;13.72;100.00
4745;BME280;2386;42.138;24.746;2022-10-10T03:34:05;100440.28;;;13.71;100.00
4745;BME280;2386;42.138;24.746;2022-10-10T03:36:30;100427.34;;;13.67;100.00
4745;BME280;2386;42.138;24.746;2022-10-10T03:38:56;100438.16;;;13.73;100.00
4745;BME280;2386;42.138;24.746;2022-10-10T03:41:21;100444.97;;;13.64;100.00
4745;BME280;2386;42.138;24.746;2022-10-10T03:43:47;100433.63;;;13.67;100.00
4745;BME280;2386;42.138;24.746;2022-10-10T03:46:12;100446.19;;;13.68;100.00
4745;BME280;2386;42.138;24.746;2022-10-10T03:48:38;100441.34;;;13.70;100.00
4745;BME280;2386;42.138;24.746;2022-10-10T03:51:03;100437.53;;;13.71;100.00
4745;BME280;2386;42.138;24.746;2022-10-10T03:53:28;100432.31;;;13.70;100.00
4745;BME280;2386;42.138;24.746;2022-10-10T03:55:54;100438.41;;;13.84;100.00
4745;BME280;2386;42.138;24.746;2022-10-10T03:58:20;100440.91;;;13.85;100.00
4745;BME280;2386;42.138;24.746;2022-10-10T04:00:55;100437.97;;;13.87;100.00
4745;BME280;2386;42.138;24.746;2022-10-10T04:03:21;100437.09;;;13.74;100.00
4745;BME280;2386;42.138;24.746;2022-10-10T04:05:46;100444.53;;;13.67;100.00
4745;BME280;2386;42.138;24.746;2022-10-10T04:08:12;100441.09;;;13.72;100.00
4745;BME280;2386;42.138;24.746;2022-10-10T04:10:37;100439.91;;;13.68;100.00
4745;BME280;2386;42.138;24.746;2022-10-10T04:13:03;100447.38;;;13.72;100.00
4745;BME280;2386;42.138;24.746;2022-10-10T04:15:28;100449.66;;;13.75;100.00
4745;BME280;2386;42.138;24.746;2022-10-10T04:17:54;100455.09;;;13.75;100.00
4745;BME280;2386;42.138;24.746;2022-10-10T04:20:20;100443.22;;;13.70;100.00
4745;BME280;2386;42.138;24.746;2022-10-10T04:22:45;100457.56;;;13.65;100.00
4745;BME280;2386;42.138;24.746;2022-10-10T04:25:11;100448.13;;;13.79;100.00
4745;BME280;2386;42.138;24.746;2022-10-10T04:27:36;100450.38;;;13.82;100.00
4745;BME280;2386;42.138;24.746;2022-10-10T04:30:03;100446.47;;;13.78;100.00
4745;BME280;2386;42.138;24.746;2022-10-10T04:32:29;100455.00;;;13.82;100.00
4745;BME280;2386;42.138;24.746;2022-10-10T04:34:54;100451.09;;;13.78;100.00
4745;BME280;2386;42.138;24.746;2022-10-10T04:37:19;100453.50;;;13.86;100.00
4745;BME280;2386;42.138;24.746;2022-10-10T04:39:45;100450.84;;;13.79;100.00
4745;BME280;2386;42.138;24.746;2022-10-10T04:42:10;100459.91;;;13.92;100.00
4745;BME280;2386;42.138;24.746;2022-10-10T04:44:36;100461.16;;;13.77;100.00
4745;BME280;2386;42.138;24.746;2022-10-10T04:47:02;100468.88;;;13.80;100.00
4745;BME280;2386;42.138;24.746;2022-10-10T04:49:27;100460.25;;;13.84;100.00
4745;BME280;2386;42.138;24.746;2022-10-10T04:51:53;100471.06;;;13.90;100.00
4745;BME280;2386;42.138;24.746;2022-10-10T04:54:18;100469.03;;;13.86;100.00
4745;BME280;2386;42.138;24.746;2022-10-10T04:56:43;100469.53;;;13.94;100.00
4745;BME280;2386;42.138;24.746;2022-10-10T04:59:10;100472.72;;;13.91;100.00
4745;BME280;2386;42.138;24.746;2022-10-10T05:01:36;100484.47;;;13.92;100.00
4745;BME280;2386;42.138;24.746;2022-10-10T05:04:01;100487.50;;;13.84;100.00
4745;BME280;2386;42.138;24.746;2022-10-10T05:06:28;100487.69;;;14.00;100.00
4745;BME280;2386;42.138;24.746;2022-10-10T05:08:53;100498.38;;;14.13;100.00
4745;BME280;2386;42.138;24.746;2022-10-10T05:11:19;100488.53;;;14.01;100.00
4745;BME280;2386;42.138;24.746;2022-10-10T05:13:44;100498.88;;;14.10;100.00
4745;BME280;2386;42.138;24.746;2022-10-10T05:16:10;100499.56;;;14.06;100.00
4745;BME280;2386;42.138;24.746;2022-10-10T05:18:35;100512.75;;;14.09;100.00
4745;BME280;2386;42.138;24.746;2022-10-10T05:21:04;100504.81;;;14.07;100.00
4745;BME280;2386;42.138;24.746;2022-10-10T05:23:33;100515.34;;;14.15;100.00
4745;BME280;2386;42.138;24.746;2022-10-10T05:25:58;100507.63;;;14.12;100.00
4745;BME280;2386;42.138;24.746;2022-10-10T05:28:24;100508.59;;;14.18;100.00
4745;BME280;2386;42.138;24.746;2022-10-10T05:30:51;100511.34;;;14.18;100.00
4745;BME280;2386;42.138;24.746;2022-10-10T05:33:16;100506.09;;;14.05;100.00
4745;BME280;2386;42.138;24.746;2022-10-10T05:35:42;100521.41;;;14.18;100.00
4745;BME280;2386;42.138;24.746;2022-10-10T05:38:07;100520.44;;;14.12;100.00
4745;BME280;2386;42.138;24.746;2022-10-10T05:40:33;100514.97;;;14.00;100.00
4745;BME280;2386;42.138;24.746;2022-10-10T05:42:58;100519.06;;;14.21;100.00
4745;BME280;2386;42.138;24.746;2022-10-10T05:45:24;100523.44;;;14.22;100.00
4745;BME280;2386;42.138;24.746;2022-10-10T05:47:49;100526.78;;;14.24;100.00
4745;BME280;2386;42.138;24.746;2022-10-10T05:52:49;100520.28;;;14.37;100.00
4745;BME280;2386;42.138;24.746;2022-10-10T05:55:15;100530.75;;;14.40;100.00
4745;BME280;2386;42.138;24.746;2022-10-10T05:57:40;100534.47;;;14.45;100.00
4745;BME280;2386;42.138;24.746;2022-10-10T06:00:06;100534.59;;;14.51;100.00
4745;BME280;2386;42.138;24.746;2022-10-10T06:02:32;100547.81;;;14.65;100.00
4745;BME280;2386;42.138;24.746;2022-10-10T06:04:57;100543.72;;;14.44;100.00
4745;BME280;2386;42.138;24.746;2022-10-10T06:07:22;100543.78;;;14.68;100.00
4745;BME280;2386;42.138;24.746;2022-10-10T06:09:49;100548.41;;;14.67;100.00
4745;BME280;2386;42.138;24.746;2022-10-10T06:12:15;100548.56;;;14.84;100.00
4745;BME280;2386;42.138;24.746;2022-10-10T06:14:41;100554.59;;;14.86;100.00
4745;BME280;2386;42.138;24.746;2022-10-10T06:17:06;100547.94;;;14.94;100.00
4745;BME280;2386;42.138;24.746;2022-10-10T06:19:33;100547.94;;;15.05;100.00
4745;BME280;2386;42.138;24.746;2022-10-10T06:21:58;100551.41;;;15.12;100.00
4745;BME280;2386;42.138;24.746;2022-10-10T06:24:24;100550.56;;;15.24;100.00
4745;BME280;2386;42.138;24.746;2022-10-10T06:26:49;100554.13;;;15.36;100.00
4745;BME280;2386;42.138;24.746;2022-10-10T06:29:14;100557.09;;;15.46;100.00
4745;BME280;2386;42.138;24.746;2022-10-10T06:31:40;100549.47;;;15.48;100.00
4745;BME280;2386;42.138;24.746;2022-10-10T06:34:06;100541.78;;;15.57;100.00
4745;BME280;2386;42.138;24.746;2022-10-10T06:36:32;100546.69;;;15.71;100.00
4745;BME280;2386;42.138;24.746;2022-10-10T06:38:58;100559.53;;;15.83;100.00
4745;BME280;2386;42.138;24.746;2022-10-10T06:41:23;100539.88;;;15.86;100.00
4745;BME280;2386;42.138;24.746;2022-10-10T06:43:49;100548.06;;;15.97;100.00
4745;BME280;2386;42.138;24.746;2022-10-10T06:46:16;100538.78;;;15.98;100.00
4745;BME280;2386;42.138;24.746;2022-10-10T06:48:43;100559.31;;;16.13;100.00
4745;BME280;2386;42.138;24.746;2022-10-10T06:51:16;100546.44;;;16.13;100.00
4745;BME280;2386;42.138;24.746;2022-10-10T06:53:42;100558.44;;;16.24;99.39
4745;BME280;2386;42.138;24.746;2022-10-10T06:56:10;100560.19;;;16.30;97.20
4745;BME280;2386;42.138;24.746;2022-10-10T06:58:41;100552.63;;;16.37;96.16
4745;BME280;2386;42.138;24.746;2022-10-10T07:01:08;100540.34;;;16.39;95.10
4745;BME280;2386;42.138;24.746;2022-10-10T07:03:34;100547.81;;;16.44;95.51
4745;BME280;2386;42.138;24.746;2022-10-10T07:06:02;100564.53;;;16.59;95.95
4745;BME280;2386;42.138;24.746;2022-10-10T07:08:30;100555.47;;;16.59;93.31
4745;BME280;2386;42.138;24.746;2022-10-10T07:10:56;100557.84;;;16.67;90.73
4745;BME280;2386;42.138;24.746;2022-10-10T07:13:21;100562.34;;;16.73;89.35
4745;BME280;2386;42.138;24.746;2022-10-10T07:15:47;100569.00;;;16.77;90.41
4745;BME280;2386;42.138;24.746;2022-10-10T07:18:13;100570.97;;;16.82;88.98
4745;BME280;2386;42.138;24.746;2022-10-10T07:20:41;100569.91;;;16.83;89.84
4745;BME280;2386;42.138;24.746;2022-10-10T07:23:07;100557.63;;;16.85;88.88
4745;BME280;2386;42.138;24.746;2022-10-10T07:25:37;100552.22;;;16.90;88.22
4745;BME280;2386;42.138;24.746;2022-10-10T07:28:03;100552.38;;;17.00;87.72
4745;BME280;2386;42.138;24.746;2022-10-10T07:30:28;100574.53;;;17.16;86.86
4745;BME280;2386;42.138;24.746;2022-10-10T07:33:00;100556.50;;;17.20;84.57
4745;BME280;2386;42.138;24.746;2022-10-10T07:35:36;100568.78;;;17.34;84.56
4745;BME280;2386;42.138;24.746;2022-10-10T07:38:02;100564.38;;;17.33;84.14
4745;BME280;2386;42.138;24.746;2022-10-10T07:40:28;100571.09;;;17.42;83.86
4745;BME280;2386;42.138;24.746;2022-10-10T07:42:53;100573.31;;;17.45;82.91
4745;BME280;2386;42.138;24.746;2022-10-10T07:45:18;100570.16;;;17.53;82.85
4745;BME280;2386;42.138;24.746;2022-10-10T07:47:45;100571.88;;;17.59;82.82
4745;BME280;2386;42.138;24.746;2022-10-10T07:50:11;100568.72;;;17.67;82.06
4745;BME280;2386;42.138;24.746;2022-10-10T07:52:38;100571.72;;;17.66;82.47
4745;BME280;2386;42.138;24.746;2022-10-10T07:55:04;100552.75;;;17.64;82.12
4745;BME280;2386;42.138;24.746;2022-10-10T07:57:29;100571.09;;;17.81;82.47
4745;BME280;2386;42.138;24.746;2022-10-10T08:02:34;100566.78;;;17.90;81.78
4745;BME280;2386;42.138;24.746;2022-10-10T08:04:59;100565.78;;;17.96;82.38
4745;BME280;2386;42.138;24.746;2022-10-10T08:07:25;100568.38;;;18.08;82.07
4745;BME280;2386;42.138;24.746;2022-10-10T08:09:50;100569.78;;;18.10;81.90
4745;BME280;2386;42.138;24.746;2022-10-10T08:12:16;100565.50;;;18.19;80.88
4745;BME280;2386;42.138;24.746;2022-10-10T08:14:41;100560.88;;;18.25;80.57
4745;BME280;2386;42.138;24.746;2022-10-10T08:17:07;100576.41;;;18.36;80.42
4745;BME280;2386;42.138;24.746;2022-10-10T08:19:32;100566.03;;;18.43;79.89
4745;BME280;2386;42.138;24.746;2022-10-10T08:21:58;100573.25;;;18.49;79.88
4745;BME280;2386;42.138;24.746;2022-10-10T08:24:23;100564.78;;;18.56;79.50
4745;BME280;2386;42.138;24.746;2022-10-10T08:26:49;100555.16;;;18.58;80.18
4745;BME280;2386;42.138;24.746;2022-10-10T08:29:15;100563.78;;;18.67;79.51
4745;BME280;2386;42.138;24.746;2022-10-10T08:31:41;100561.13;;;18.77;79.37
4745;BME280;2386;42.138;24.746;2022-10-10T08:34:06;100566.41;;;18.84;78.71
4745;BME280;2386;42.138;24.746;2022-10-10T08:36:33;100560.69;;;18.90;78.48
4745;BME280;2386;42.138;24.746;2022-10-10T08:38:59;100554.97;;;18.97;78.25
4745;BME280;2386;42.138;24.746;2022-10-10T08:42:01;100552.00;;;19.03;77.71
4745;BME280;2386;42.138;24.746;2022-10-10T08:44:54;100556.72;;;19.08;76.79
4745;BME280;2386;42.138;24.746;2022-10-10T08:50:19;100554.38;;;19.27;75.85
4745;BME280;2386;42.138;24.746;2022-10-10T08:53:12;100552.75;;;19.36;75.35
4745;BME280;2386;42.138;24.746;2022-10-10T08:55:41;100549.19;;;19.41;74.46
4745;BME280;2386;42.138;24.746;2022-10-10T08:58:29;100536.59;;;19.50;74.61
4745;BME280;2386;42.138;24.746;2022-10-10T09:03:38;100530.41;;;19.69;74.44
4745;BME280;2386;42.138;24.746;2022-10-10T09:09:25;100544.53;;;19.88;71.16
4745;BME280;2386;42.138;24.746;2022-10-10T09:20:02;100534.94;;;20.16;68.01
4745;BME280;2386;42.138;24.746;2022-10-10T09:22:35;100529.47;;;20.31;67.53
4745;BME280;2386;42.138;24.746;2022-10-10T09:25:18;100538.63;;;20.42;66.23
4745;BME280;2386;42.138;24.746;2022-10-10T09:28:00;100521.81;;;20.49;65.22
4745;BME280;2386;42.138;24.746;2022-10-10T09:30:28;100523.47;;;20.60;64.65
4745;BME280;2386;42.138;24.746;2022-10-10T09:33:06;100529.56;;;20.67;65.04
4745;BME280;2386;42.138;24.746;2022-10-10T09:35:36;100509.69;;;20.75;63.75
4745;BME280;2386;42.138;24.746;2022-10-10T09:38:34;100522.06;;;20.93;62.21
4745;BME280;2386;42.138;24.746;2022-10-10T09:41:10;100520.69;;;20.95;61.26
4745;BME280;2386;42.138;24.746;2022-10-10T09:43:40;100516.00;;;20.96;62.35
4745;BME280;2386;42.138;24.746;2022-10-10T09:46:07;100511.03;;;21.03;61.96
4745;BME280;2386;42.138;24.746;2022-10-10T09:48:35;100511.84;;;21.14;61.23
4745;BME280;2386;42.138;24.746;2022-10-10T09:51:06;100512.41;;;21.26;60.49
4745;BME280;2386;42.138;24.746;2022-10-10T09:53:32;100495.28;;;21.19;60.49
4745;BME280;2386;42.138;24.746;2022-10-10T09:55:59;100498.88;;;21.29;61.15
4745;BME280;2386;42.138;24.746;2022-10-10T10:01:18;100485.34;;;21.33;59.36
4745;BME280;2386;42.138;24.746;2022-10-10T10:04:12;100509.84;;;21.50;59.02
4745;BME280;2386;42.138;24.746;2022-10-10T10:06:44;100505.47;;;21.44;59.56
4745;BME280;2386;42.138;24.746;2022-10-10T10:09:14;100504.06;;;21.51;59.10
4745;BME280;2386;42.138;24.746;2022-10-10T10:11:41;100487.78;;;21.50;58.96
4745;BME280;2386;42.138;24.746;2022-10-10T10:14:30;100497.59;;;21.71;58.71
4745;BME280;2386;42.138;24.746;2022-10-10T10:17:28;100506.13;;;21.80;58.05
4745;BME280;2386;42.138;24.746;2022-10-10T10:19:54;100487.88;;;21.84;58.04
4745;BME280;2386;42.138;24.746;2022-10-10T10:22:31;100493.59;;;21.97;58.14
4745;BME280;2386;42.138;24.746;2022-10-10T10:24:59;100489.19;;;22.02;57.37
4745;BME280;2386;42.138;24.746;2022-10-10T10:27:26;100483.34;;;22.08;56.16
4745;BME280;2386;42.138;24.746;2022-10-10T10:29:55;100479.47;;;22.09;56.29
4745;BME280;2386;42.138;24.746;2022-10-10T10:32:46;100479.31;;;22.29;55.17
4745;BME280;2386;42.138;24.746;2022-10-10T10:35:17;100477.63;;;22.34;55.13
4745;BME280;2386;42.138;24.746;2022-10-10T10:40:52;100462.31;;;22.46;54.02
4745;BME280;2386;42.138;24.746;2022-10-10T10:46:09;100470.50;;;22.61;53.13
4745;BME280;2386;42.138;24.746;2022-10-10T10:51:58;100457.19;;;22.63;53.42
4745;BME280;2386;42.138;24.746;2022-10-10T10:57:10;100460.16;;;22.72;52.36
4745;BME280;2386;42.138;24.746;2022-10-10T11:00:07;100451.34;;;22.70;53.21
4745;BME280;2386;42.138;24.746;2022-10-10T11:11:36;100431.81;;;22.56;51.69
4745;BME280;2386;42.138;24.746;2022-10-10T11:20:35;100431.56;;;22.53;52.11
4745;BME280;2386;42.138;24.746;2022-10-10T11:23:10;100426.13;;;22.43;51.80
4745;BME280;2386;42.138;24.746;2022-10-10T11:25:49;100433.25;;;22.49;52.44
4745;BME280;2386;42.138;24.746;2022-10-10T11:28:39;100428.81;;;22.53;52.06
4745;BME280;2386;42.138;24.746;2022-10-10T11:31:10;100428.84;;;22.48;51.67
4745;BME280;2386;42.138;24.746;2022-10-10T11:33:46;100431.06;;;22.46;52.20
4745;BME280;2386;42.138;24.746;2022-10-10T11:36:21;100428.03;;;22.47;52.21
4745;BME280;2386;42.138;24.746;2022-10-10T11:41:59;100430.22;;;22.50;53.33
4745;BME280;2386;42.138;24.746;2022-10-10T11:44:38;100424.97;;;22.49;52.52
4745;BME280;2386;42.138;24.746;2022-10-10T11:47:17;100429.38;;;22.50;52.47
4745;BME280;2386;42.138;24.746;2022-10-10T11:52:40;100423.19;;;22.63;51.98
4745;BME280;2386;42.138;24.746;2022-10-10T11:55:27;100420.94;;;22.65;51.36
4745;BME280;2386;42.138;24.746;2022-10-10T12:00:38;100418.63;;;22.77;50.87
4745;BME280;2386;42.138;24.746;2022-10-10T12:03:07;100410.66;;;22.71;50.88
4745;BME280;2386;42.138;24.746;2022-10-10T12:05:34;100410.38;;;22.72;51.37
4745;BME280;2386;42.138;24.746;2022-10-10T12:08:29;100403.19;;;22.71;51.73
4745;BME280;2386;42.138;24.746;2022-10-10T12:14:06;100393.78;;;22.72;51.89
4745;BME280;2386;42.138;24.746;2022-10-10T12:16:33;100390.97;;;22.77;51.93
4745;BME280;2386;42.138;24.746;2022-10-10T12:19:07;100374.94;;;22.74;50.99
4745;BME280;2386;42.138;24.746;2022-10-10T12:24:20;100393.84;;;22.96;49.26
4745;BME280;2386;42.138;24.746;2022-10-10T12:40:15;100399.59;;;23.00;49.16
4745;BME280;2386;42.138;24.746;2022-10-10T12:47:59;100396.34;;;22.92;49.21
4745;BME280;2386;42.138;24.746;2022-10-10T12:50:31;100385.34;;;22.87;50.13
4745;BME280;2386;42.138;24.746;2022-10-10T12:53:05;100388.13;;;22.87;50.75
4745;BME280;2386;42.138;24.746;2022-10-10T12:58:38;100382.06;;;22.85;49.71
4745;BME280;2386;42.138;24.746;2022-10-10T13:01:07;100383.22;;;22.79;50.27
4745;BME280;2386;42.138;24.746;2022-10-10T13:03:47;100379.88;;;22.77;50.03
4745;BME280;2386;42.138;24.746;2022-10-10T13:06:36;100379.88;;;22.77;50.85
4745;BME280;2386;42.138;24.746;2022-10-10T13:09:08;100378.34;;;22.66;50.90
4745;BME280;2386;42.138;24.746;2022-10-10T13:12:04;100383.06;;;22.66;51.33
4745;BME280;2386;42.138;24.746;2022-10-10T13:14:41;100392.75;;;22.63;50.64
4745;BME280;2386;42.138;24.746;2022-10-10T13:17:39;100374.81;;;22.60;51.30
4745;BME280;2386;42.138;24.746;2022-10-10T13:20:19;100371.75;;;22.62;51.26
4745;BME280;2386;42.138;24.746;2022-10-10T13:22:49;100360.94;;;22.66;51.03
4745;BME280;2386;42.138;24.746;2022-10-10T13:25:17;100348.16;;;22.70;50.65
4745;BME280;2386;42.138;24.746;2022-10-10T13:27:44;100355.03;;;22.72;50.76
4745;BME280;2386;42.138;24.746;2022-10-10T13:30:20;100343.50;;;22.65;50.48
4745;BME280;2386;42.138;24.746;2022-10-10T13:32:46;100330.84;;;22.59;50.28
4745;BME280;2386;42.138;24.746;2022-10-10T13:35:14;100344.56;;;22.69;50.50
4745;BME280;2386;42.138;24.746;2022-10-10T13:37:41;100341.28;;;22.67;50.16
4745;BME280;2386;42.138;24.746;2022-10-10T13:40:17;100352.81;;;22.74;50.80
4745;BME280;2386;42.138;24.746;2022-10-10T13:42:45;100340.91;;;22.79;50.94
4745;BME280;2386;42.138;24.746;2022-10-10T13:50:52;100327.72;;;22.94;50.81
4745;BME280;2386;42.138;24.746;2022-10-10T14:04:21;100337.38;;;23.16;49.10
4745;BME280;2386;42.138;24.746;2022-10-10T14:12:06;100339.84;;;23.17;50.21
4745;BME280;2386;42.138;24.746;2022-10-10T14:14:39;100337.00;;;23.22;49.84
4745;BME280;2386;42.138;24.746;2022-10-10T14:17:08;100336.19;;;23.22;49.45
4745;BME280;2386;42.138;24.746;2022-10-10T14:19:35;100337.84;;;23.23;49.41
4745;BME280;2386;42.138;24.746;2022-10-10T14:22:00;100332.84;;;23.25;48.93
4745;BME280;2386;42.138;24.746;2022-10-10T14:24:26;100334.00;;;23.19;49.25
4745;BME280;2386;42.138;24.746;2022-10-10T14:26:51;100330.66;;;23.22;49.40
4745;BME280;2386;42.138;24.746;2022-10-10T14:29:18;100326.84;;;23.18;49.38
4745;BME280;2386;42.138;24.746;2022-10-10T14:31:44;100325.19;;;23.17;49.60
4745;BME280;2386;42.138;24.746;2022-10-10T14:34:10;100333.03;;;23.10;48.72
4745;BME280;2386;42.138;24.746;2022-10-10T14:36:39;100316.13;;;22.92;49.28
4745;BME280;2386;42.138;24.746;2022-10-10T14:39:06;100312.94;;;22.80;49.69
4745;BME280;2386;42.138;24.746;2022-10-10T14:41:32;100306.91;;;22.73;50.13
4745;BME280;2386;42.138;24.746;2022-10-10T14:43:57;100321.38;;;22.65;50.29
4745;BME280;2386;42.138;24.746;2022-10-10T14:46:22;100312.06;;;22.56;49.93
4745;BME280;2386;42.138;24.746;2022-10-10T14:48:48;100302.78;;;22.47;49.91
4745;BME280;2386;42.138;24.746;2022-10-10T14:51:13;100308.00;;;22.48;50.29
4745;BME280;2386;42.138;24.746;2022-10-10T14:53:39;100314.41;;;22.44;50.64
4745;BME280;2386;42.138;24.746;2022-10-10T14:56:04;100314.72;;;22.42;49.86
4745;BME280;2386;42.138;24.746;2022-10-10T14:58:30;100321.06;;;22.43;50.07
4745;BME280;2386;42.138;24.746;2022-10-10T15:00:56;100308.41;;;22.37;50.43
4745;BME280;2386;42.138;24.746;2022-10-10T15:03:21;100313.69;;;22.33;50.30
4745;BME280;2386;42.138;24.746;2022-10-10T15:05:47;100315.09;;;22.30;50.93
4745;BME280;2386;42.138;24.746;2022-10-10T15:08:15;100308.00;;;22.24;50.97
4745;BME280;2386;42.138;24.746;2022-10-10T15:10:41;100307.22;;;22.19;51.05
4745;BME280;2386;42.138;24.746;2022-10-10T15:13:09;100304.25;;;22.10;51.73
4745;BME280;2386;42.138;24.746;2022-10-10T15:15:35;100304.84;;;22.07;51.96
4745;BME280;2386;42.138;24.746;2022-10-10T15:18:01;100304.88;;;22.02;52.45